Terminal Aerodrome Forecast
Issued by NWS

Home | Current Version | Previous Version | Text Only | Print | Product List | Glossary On
Versions: 1 2 3 4 5 6 7 8 9 10 11 12 13 14 15 16 17 18 19 20 21 22 23 24 25 26
000
FTUS45 KPSR 141732
TAFSDL
TAF
KSDL 141732Z 1418/1518 VRB05KT P6SM SCT250
     FM142100 01006KT P6SM FEW250
     FM150000 05008G15KT P6SM SKC
     FM150500 04006KT P6SM SKC WS010/06030KT
     FM151500 VRB04KT P6SM SKC=

USA.gov is the U.S. government's official web portal to all federal, state and local government web resources and services.